createdAt,value
2022-11-19T00:02:12.768Z,26.20
2022-11-19T00:04:39.319Z,27.50
2022-11-19T00:07:05.819Z,31.55
2022-11-19T00:09:32.390Z,29.80
2022-11-19T00:12:17.490Z,33.30
2022-11-19T00:14:43.945Z,42.13
2022-11-19T00:17:10.453Z,28.88
2022-11-19T00:19:36.962Z,29.55
2022-11-19T00:22:03.496Z,34.67
2022-11-19T00:24:29.996Z,27.00
2022-11-19T00:26:56.546Z,30.02
2022-11-19T00:29:23.577Z,30.83
2022-11-19T00:31:50.258Z,30.13
2022-11-19T00:34:16.714Z,30.63
2022-11-19T00:36:43.201Z,28.25
2022-11-19T00:39:09.648Z,28.05
2022-11-19T00:41:36.112Z,25.23
2022-11-19T00:44:02.614Z,23.65
2022-11-19T00:46:30.170Z,36.42
2022-11-19T00:48:57.977Z,29.00
2022-11-19T00:51:25.469Z,24.30
2022-11-19T00:53:52.342Z,25.10
2022-11-19T00:56:21.054Z,28.73
2022-11-19T00:58:47.924Z,26.80
2022-11-19T01:01:15.191Z,35.75
2022-11-19T01:03:42.609Z,31.77
2022-11-19T01:06:09.999Z,26.50
2022-11-19T01:08:36.791Z,25.30
2022-11-19T01:11:07.596Z,20.90
2022-11-19T01:13:37.385Z,26.58
2022-11-19T01:16:05.580Z,25.35
2022-11-19T01:18:32.115Z,26.35
2022-11-19T01:20:58.656Z,33.55
2022-11-19T01:23:25.178Z,28.33
2022-11-19T01:25:51.762Z,33.20
2022-11-19T01:28:18.251Z,33.03
2022-11-19T01:30:44.974Z,28.88
2022-11-19T01:33:11.899Z,21.42
2022-11-19T01:35:38.675Z,33.75
2022-11-19T01:38:05.753Z,30.65
2022-11-19T01:40:32.535Z,20.48
2022-11-19T01:42:58.982Z,25.38
2022-11-19T01:45:44.019Z,30.45
2022-11-19T01:48:16.612Z,25.40
2022-11-19T01:50:47.457Z,21.88
2022-11-19T01:53:14.605Z,26.75
2022-11-19T01:55:42.683Z,31.73
2022-11-19T01:58:09.344Z,23.17
2022-11-19T02:00:35.861Z,29.33
2022-11-19T02:03:02.788Z,29.20
2022-11-19T02:05:29.294Z,25.38
2022-11-19T02:07:57.525Z,26.73
2022-11-19T02:10:32.645Z,20.67
2022-11-19T02:13:22.064Z,25.05
2022-11-19T02:15:54.117Z,30.50
2022-11-19T02:18:20.549Z,31.98
2022-11-19T02:20:46.991Z,21.92
2022-11-19T02:23:22.336Z,20.42
2022-11-19T02:26:00.994Z,20.15
2022-11-19T02:28:30.468Z,29.38
2022-11-19T02:31:00.751Z,26.63
2022-11-19T02:33:36.492Z,28.38
2022-11-19T02:36:07.722Z,27.50
2022-11-19T02:38:39.210Z,25.98
2022-11-19T02:41:33.615Z,18.65
2022-11-19T02:44:34.791Z,23.00
2022-11-19T02:47:03.388Z,17.15
2022-11-19T02:49:31.610Z,20.77
2022-11-19T02:51:58.712Z,17.55
2022-11-19T02:54:26.220Z,20.30
2022-11-19T02:56:53.983Z,16.05
2022-11-19T02:59:45.245Z,18.67
2022-11-19T03:02:30.627Z,18.58
2022-11-19T03:04:57.138Z,26.35
2022-11-19T03:07:23.714Z,26.42
2022-11-19T03:09:57.684Z,18.33
2022-11-19T03:12:33.269Z,28.75
2022-11-19T03:15:24.386Z,21.50
2022-11-19T03:18:01.354Z,16.48
2022-11-19T03:20:39.069Z,20.02
2022-11-19T03:23:05.480Z,20.23
2022-11-19T03:25:35.466Z,20.63
2022-11-19T03:28:03.818Z,23.00
2022-11-19T03:30:31.119Z,25.02
2022-11-19T03:33:27.070Z,23.45
2022-11-19T03:35:55.992Z,17.02
2022-11-19T03:38:29.124Z,24.55
2022-11-19T03:40:56.770Z,27.13
2022-11-19T03:43:26.178Z,28.50
2022-11-19T03:45:53.917Z,22.55
2022-11-19T03:48:21.975Z,24.67
2022-11-19T03:50:51.436Z,27.20
2022-11-19T03:53:18.241Z,21.83
2022-11-19T03:55:47.148Z,18.30
2022-11-19T03:58:13.622Z,20.70
2022-11-19T04:00:40.080Z,16.10
2022-11-19T04:03:06.590Z,22.42
2022-11-19T04:05:33.046Z,15.93
2022-11-19T04:07:59.655Z,23.83
2022-11-19T04:10:26.131Z,23.73
2022-11-19T04:12:52.611Z,16.92
2022-11-19T04:15:19.064Z,18.27
2022-11-19T04:17:45.532Z,23.55
2022-11-19T04:20:12.022Z,24.17
2022-11-19T04:22:38.464Z,26.25
2022-11-19T04:25:05.175Z,20.23
2022-11-19T04:27:31.773Z,20.77
2022-11-19T04:29:58.220Z,22.98
2022-11-19T04:32:24.774Z,18.42
2022-11-19T04:34:51.219Z,21.63
2022-11-19T04:37:17.697Z,17.40
2022-11-19T04:39:44.187Z,20.65
2022-11-19T04:42:10.649Z,20.38
2022-11-19T04:44:37.190Z,17.35
2022-11-19T04:47:03.619Z,14.40
2022-11-19T04:49:30.089Z,21.23
2022-11-19T04:51:56.592Z,21.85
2022-11-19T04:54:23.074Z,18.35
2022-11-19T04:56:49.544Z,15.85
2022-11-19T04:59:15.972Z,12.63
2022-11-19T05:01:42.478Z,15.75
2022-11-19T05:04:09.728Z,20.92
2022-11-19T05:06:36.161Z,22.02
2022-11-19T05:09:02.650Z,18.80
2022-11-19T05:11:29.189Z,19.50
2022-11-19T05:13:55.729Z,25.42
2022-11-19T05:16:22.295Z,29.58
2022-11-19T05:18:48.752Z,21.38
2022-11-19T05:21:15.245Z,18.77
2022-11-19T05:23:41.691Z,25.08
2022-11-19T05:26:08.140Z,14.88
2022-11-19T05:28:39.104Z,16.50
2022-11-19T05:31:06.510Z,22.08
2022-11-19T05:33:34.445Z,15.88
2022-11-19T05:36:01.476Z,15.80
2022-11-19T05:38:27.935Z,12.85
2022-11-19T05:40:54.411Z,15.70
2022-11-19T05:43:20.890Z,20.30
2022-11-19T05:45:47.328Z,15.50
2022-11-19T05:48:13.836Z,21.42
2022-11-19T05:50:43.085Z,12.52
2022-11-19T05:53:09.933Z,16.95
2022-11-19T05:55:36.656Z,26.55
2022-11-19T05:58:03.362Z,17.52
2022-11-19T06:00:29.825Z,16.83
2022-11-19T06:02:56.475Z,14.50
2022-11-19T06:05:22.951Z,22.00
2022-11-19T06:07:49.572Z,17.00
2022-11-19T06:10:16.074Z,19.75
2022-11-19T06:12:45.746Z,22.30
2022-11-19T06:15:12.644Z,19.50
2022-11-19T06:17:39.165Z,26.10
2022-11-19T06:20:08.782Z,17.77
2022-11-19T06:22:35.550Z,23.42
2022-11-19T06:25:02.111Z,15.32
2022-11-19T06:27:28.567Z,20.77
2022-11-19T06:29:56.363Z,28.10
2022-11-19T06:32:23.587Z,20.25
2022-11-19T06:34:50.077Z,16.80
2022-11-19T06:37:16.553Z,15.70
2022-11-19T06:39:43.014Z,13.75
2022-11-19T06:42:28.142Z,20.60
2022-11-19T06:44:54.603Z,12.32
2022-11-19T06:47:21.117Z,17.65
2022-11-19T06:49:47.766Z,20.50
2022-11-19T06:52:14.224Z,16.45
2022-11-19T06:54:43.221Z,17.40
2022-11-19T06:57:10.023Z,19.10
2022-11-19T06:59:39.209Z,19.88
2022-11-19T07:02:06.104Z,23.98
2022-11-19T07:04:32.677Z,18.23
2022-11-19T07:06:59.317Z,17.77
2022-11-19T07:09:25.848Z,17.33
2022-11-19T07:11:52.378Z,19.50
2022-11-19T07:14:18.911Z,17.70
2022-11-19T07:16:45.363Z,13.90
2022-11-19T07:19:11.870Z,14.20
2022-11-19T07:21:38.436Z,17.17
2022-11-19T07:24:06.404Z,13.52
2022-11-19T07:26:33.285Z,15.82
2022-11-19T07:29:04.363Z,20.20
2022-11-19T07:31:31.289Z,18.95
2022-11-19T07:33:57.785Z,17.13
2022-11-19T07:36:24.350Z,18.08
2022-11-19T07:38:52.443Z,19.83
2022-11-19T07:41:38.162Z,16.17
2022-11-19T07:44:04.950Z,16.30
2022-11-19T07:46:31.473Z,15.70
2022-11-19T07:48:58.438Z,23.05
2022-11-19T07:51:25.302Z,24.23
2022-11-19T07:53:52.182Z,19.00
2022-11-19T07:56:18.772Z,16.50
2022-11-19T07:58:45.352Z,13.45
2022-11-19T08:01:13.228Z,14.73
2022-11-19T08:03:42.169Z,13.45
2022-11-19T08:06:08.798Z,13.10
2022-11-19T08:08:35.259Z,18.42
2022-11-19T08:11:05.742Z,17.65
2022-11-19T08:13:32.687Z,14.43
2022-11-19T08:15:59.922Z,19.20
2022-11-19T08:18:31.035Z,12.98
2022-11-19T08:21:03.566Z,18.95
2022-11-19T08:23:30.090Z,18.05
2022-11-19T08:25:56.556Z,22.52
2022-11-19T08:28:23.013Z,13.18
2022-11-19T08:30:49.493Z,13.60
2022-11-19T08:33:15.979Z,15.63
2022-11-19T08:35:43.166Z,19.05
2022-11-19T08:38:10.005Z,24.65
2022-11-19T08:40:36.835Z,19.33
2022-11-19T08:43:03.591Z,17.58
2022-11-19T08:45:37.497Z,11.95
2022-11-19T08:50:31.727Z,12.75
2022-11-19T08:52:59.360Z,14.82
2022-11-19T08:55:26.413Z,14.52
2022-11-19T08:57:53.022Z,18.38
2022-11-19T09:00:20.257Z,18.20
2022-11-19T09:02:47.283Z,23.48
2022-11-19T09:05:14.844Z,18.80
2022-11-19T09:07:41.551Z,12.77
2022-11-19T09:10:08.558Z,21.25
2022-11-19T09:12:35.157Z,16.85
2022-11-19T09:15:01.846Z,14.70
2022-11-19T09:17:28.315Z,11.65
2022-11-19T09:19:55.269Z,21.55
2022-11-19T09:22:21.755Z,10.70
2022-11-19T09:24:48.194Z,17.33
2022-11-19T09:27:14.985Z,9.40
2022-11-19T09:29:41.482Z,18.23
2022-11-19T09:32:07.956Z,14.00
2022-11-19T09:34:35.277Z,20.58
2022-11-19T09:37:01.822Z,18.83
2022-11-19T09:39:28.259Z,15.13
2022-11-19T09:42:00.909Z,17.90
2022-11-19T09:44:36.749Z,13.38
2022-11-19T09:47:12.272Z,14.00
2022-11-19T09:49:57.587Z,16.33
2022-11-19T09:52:25.233Z,14.82
2022-11-19T09:54:56.810Z,15.48
2022-11-19T09:57:32.409Z,11.75
2022-11-19T10:00:00.681Z,16.27
2022-11-19T10:02:27.435Z,12.30
2022-11-19T10:04:54.028Z,12.48
2022-11-19T10:07:29.437Z,8.85
2022-11-19T10:10:14.438Z,14.60
2022-11-19T10:12:47.156Z,17.58
2022-11-19T10:15:22.923Z,14.80
2022-11-19T10:17:55.622Z,10.43
2022-11-19T10:20:32.015Z,15.32
2022-11-19T10:23:10.652Z,16.02
2022-11-19T10:25:44.710Z,15.13
2022-11-19T10:28:13.954Z,15.30
2022-11-19T10:30:41.344Z,13.45
2022-11-19T10:33:12.187Z,10.68
2022-11-19T10:35:40.919Z,17.80
2022-11-19T10:38:11.986Z,20.52
2022-11-19T10:40:43.389Z,13.52
2022-11-19T10:43:28.885Z,14.00
2022-11-19T10:45:56.534Z,17.88
2022-11-19T10:48:35.942Z,15.48
2022-11-19T10:51:02.693Z,13.82
2022-11-19T10:53:36.370Z,18.27
2022-11-19T10:56:09.953Z,10.15
2022-11-19T10:58:42.498Z,13.70
2022-11-19T11:01:21.102Z,15.38
2022-11-19T11:03:54.822Z,13.15
2022-11-19T11:06:21.259Z,17.10
2022-11-19T11:08:49.528Z,12.90
2022-11-19T11:11:49.912Z,16.25
2022-11-19T11:14:39.769Z,15.57
2022-11-19T11:17:16.843Z,14.38
2022-11-19T11:19:43.524Z,16.02
2022-11-19T11:22:10.048Z,20.27
2022-11-19T11:24:38.043Z,10.57
2022-11-19T11:27:21.691Z,13.13
2022-11-19T11:29:48.469Z,15.90
2022-11-19T11:32:28.657Z,15.73
2022-11-19T11:34:55.185Z,9.13
2022-11-19T11:37:22.011Z,17.85
2022-11-19T11:39:55.165Z,13.50
2022-11-19T11:42:23.922Z,16.48
2022-11-19T11:44:52.305Z,18.33
2022-11-19T11:47:20.730Z,14.88
2022-11-19T11:49:49.581Z,16.15
2022-11-19T11:52:29.966Z,14.15
2022-11-19T11:54:57.626Z,9.90
2022-11-19T11:57:34.509Z,14.18
2022-11-19T12:00:23.977Z,10.32
2022-11-19T12:03:19.994Z,16.90
2022-11-19T12:05:46.606Z,14.00
2022-11-19T12:08:13.026Z,17.77
2022-11-19T12:10:48.869Z,17.80
2022-11-19T12:13:27.757Z,14.00
2022-11-19T12:16:08.301Z,12.35
2022-11-19T12:18:34.745Z,16.48
2022-11-19T12:21:12.188Z,12.27
2022-11-19T12:23:42.106Z,14.23
2022-11-19T12:26:17.565Z,13.63
2022-11-19T12:29:02.497Z,12.48
2022-11-19T12:31:44.189Z,9.27
2022-11-19T12:34:13.676Z,12.80
2022-11-19T12:36:49.349Z,12.02
2022-11-19T12:39:26.830Z,13.80
2022-11-19T12:41:56.490Z,14.07
2022-11-19T12:44:49.433Z,22.88
2022-11-19T12:47:33.566Z,12.10
2022-11-19T12:52:35.796Z,12.90
2022-11-19T12:55:17.405Z,12.43
2022-11-19T12:57:51.181Z,24.05
2022-11-19T13:00:22.086Z,17.45
2022-11-19T13:02:59.166Z,16.73
2022-11-19T13:05:44.480Z,34.25
2022-11-19T13:08:29.704Z,13.75
2022-11-19T13:10:59.343Z,21.45
2022-11-19T13:13:26.970Z,13.75
2022-11-19T13:15:56.413Z,11.05
2022-11-19T13:18:23.361Z,11.82
2022-11-19T13:20:53.394Z,20.30
2022-11-19T13:23:23.427Z,12.65
2022-11-19T13:26:00.811Z,16.52
2022-11-19T13:28:31.761Z,22.20
2022-11-19T13:31:01.156Z,10.82
2022-11-19T13:33:57.107Z,20.77
2022-11-19T13:36:44.049Z,14.55
2022-11-19T13:39:14.591Z,11.82
2022-11-19T13:42:08.874Z,14.85
2022-11-19T13:44:38.942Z,15.32
2022-11-19T13:47:09.957Z,18.77
2022-11-19T13:49:39.575Z,14.18
2022-11-19T13:52:08.459Z,13.55
2022-11-19T13:54:36.374Z,21.58
2022-11-19T13:57:03.860Z,22.75
2022-11-19T13:59:33.672Z,12.90
2022-11-19T14:02:03.149Z,19.30
2022-11-19T14:04:43.069Z,12.63
2022-11-19T14:07:31.155Z,25.33
2022-11-19T14:10:13.381Z,14.98
2022-11-19T14:12:39.861Z,10.98
2022-11-19T14:15:51.397Z,19.83
2022-11-19T14:18:36.134Z,8.07
2022-11-19T14:21:40.297Z,17.17
2022-11-19T14:24:45.256Z,16.17
2022-11-19T14:27:15.568Z,19.13
2022-11-19T14:29:45.314Z,27.30
2022-11-19T14:32:11.736Z,13.27
2022-11-19T14:34:57.145Z,18.95
2022-11-19T14:37:27.148Z,20.40
2022-11-19T14:40:13.989Z,10.52
2022-11-19T14:43:18.162Z,12.00
2022-11-19T14:46:03.215Z,14.55
2022-11-19T14:48:34.292Z,17.25
2022-11-19T14:51:05.065Z,13.32
2022-11-19T14:53:31.825Z,11.23
2022-11-19T14:55:59.798Z,17.55
2022-11-19T14:58:26.515Z,8.45
2022-11-19T15:01:05.656Z,9.10
2022-11-19T15:03:32.292Z,15.18
2022-11-19T15:06:01.939Z,12.70
2022-11-19T15:08:30.031Z,13.85
2022-11-19T15:11:05.896Z,9.38
2022-11-19T15:13:36.432Z,12.25
2022-11-19T15:16:09.162Z,12.98
2022-11-19T15:18:55.893Z,12.00
2022-11-19T15:21:40.683Z,14.20
2022-11-19T15:24:25.714Z,14.25
2022-11-19T15:27:18.643Z,17.75
2022-11-19T15:30:04.811Z,14.43
2022-11-19T15:32:49.585Z,14.18
2022-11-19T15:35:28.377Z,17.50
2022-11-19T15:37:59.444Z,15.57
2022-11-19T15:40:29.264Z,11.00
2022-11-19T15:43:04.524Z,16.00
2022-11-19T15:45:33.338Z,19.40
2022-11-19T15:48:09.758Z,13.13
2022-11-19T15:50:36.834Z,19.48
2022-11-19T15:53:14.392Z,18.55
2022-11-19T15:55:48.152Z,11.60
2022-11-19T16:00:45.876Z,13.60
2022-11-19T16:03:12.764Z,16.55
2022-11-19T16:05:39.808Z,19.33
2022-11-19T16:08:12.399Z,14.43
2022-11-19T16:10:43.038Z,14.77
2022-11-19T16:13:44.749Z,11.05
2022-11-19T16:16:47.135Z,18.23
2022-11-19T16:19:15.231Z,12.65
2022-11-19T16:21:42.830Z,10.43
2022-11-19T16:24:32.241Z,10.90
2022-11-19T16:26:59.120Z,11.05
2022-11-19T16:29:26.583Z,11.40
2022-11-19T16:32:02.878Z,14.55
2022-11-19T16:34:30.625Z,15.65
2022-11-19T16:36:57.515Z,11.38
2022-11-19T16:39:28.095Z,10.93
2022-11-19T16:42:20.018Z,10.35
2022-11-19T16:44:57.490Z,9.40
2022-11-19T16:47:27.078Z,12.75
2022-11-19T16:50:05.212Z,12.68
2022-11-19T16:52:31.682Z,15.32
2022-11-19T16:54:58.626Z,9.32
2022-11-19T16:57:26.235Z,13.13
2022-11-19T16:59:54.166Z,11.32
2022-11-19T17:02:22.382Z,15.02
2022-11-19T17:04:50.424Z,19.98
2022-11-19T17:07:35.893Z,15.68
2022-11-19T17:10:24.090Z,11.32
2022-11-19T17:12:50.939Z,18.90
2022-11-19T17:15:36.865Z,12.35
2022-11-19T17:18:22.269Z,13.77
2022-11-19T17:20:50.656Z,14.88
2022-11-19T17:23:17.094Z,11.13
2022-11-19T17:25:48.071Z,16.42
2022-11-19T17:28:20.436Z,16.73
2022-11-19T17:30:49.536Z,14.50
2022-11-19T17:33:17.175Z,12.82
2022-11-19T17:35:44.678Z,13.50
2022-11-19T17:38:12.681Z,16.25
2022-11-19T17:40:52.660Z,17.60
2022-11-19T17:43:51.150Z,12.30
2022-11-19T17:46:17.844Z,12.45
2022-11-19T17:48:44.963Z,10.45
2022-11-19T17:51:22.111Z,9.88
2022-11-19T17:53:51.164Z,15.55
2022-11-19T17:56:30.389Z,13.35
2022-11-19T17:58:57.006Z,15.68
2022-11-19T18:01:23.576Z,11.95
2022-11-19T18:03:50.180Z,18.60
2022-11-19T18:06:17.088Z,14.90
2022-11-19T18:08:43.594Z,16.40
2022-11-19T18:11:14.525Z,11.27
2022-11-19T18:13:42.310Z,18.00
2022-11-19T18:16:12.785Z,9.75
2022-11-19T18:18:39.331Z,14.68
2022-11-19T18:21:05.982Z,10.40
2022-11-19T18:23:32.448Z,10.93
2022-11-19T18:25:58.937Z,9.32
2022-11-19T18:28:25.382Z,14.50
2022-11-19T18:30:51.841Z,17.13
2022-11-19T18:33:19.273Z,15.30
2022-11-19T18:35:45.743Z,16.90
2022-11-19T18:38:12.277Z,17.08
2022-11-19T18:40:38.748Z,7.88
2022-11-19T18:43:23.920Z,11.35
2022-11-19T18:45:50.352Z,6.35
2022-11-19T18:48:16.834Z,16.60
2022-11-19T18:50:43.277Z,19.65
2022-11-19T18:53:11.519Z,20.80
2022-11-19T18:55:38.332Z,22.80
2022-11-19T18:58:05.042Z,10.43
2022-11-19T19:00:31.542Z,18.30
2022-11-19T19:02:57.994Z,9.90
2022-11-19T19:05:24.466Z,13.10
2022-11-19T19:07:50.999Z,12.90
2022-11-19T19:10:17.434Z,13.95
2022-11-19T19:12:43.909Z,12.07
2022-11-19T19:15:10.517Z,12.30
2022-11-19T19:17:36.997Z,13.93
2022-11-19T19:20:03.778Z,14.98
2022-11-19T19:22:30.299Z,11.90
2022-11-19T19:24:58.291Z,12.40
2022-11-19T19:27:25.056Z,9.38
2022-11-19T19:29:51.506Z,17.63
2022-11-19T19:32:17.996Z,10.68
2022-11-19T19:34:44.711Z,8.50
2022-11-19T19:37:11.181Z,20.13
2022-11-19T19:39:37.760Z,9.23
2022-11-19T19:42:04.281Z,11.10
2022-11-19T19:44:30.837Z,12.73
2022-11-19T19:46:57.462Z,8.90
2022-11-19T19:49:24.361Z,13.40
2022-11-19T19:51:51.136Z,15.52
2022-11-19T19:54:17.635Z,17.67
2022-11-19T19:56:44.111Z,13.02
2022-11-19T19:59:12.041Z,12.73
2022-11-19T20:01:38.590Z,15.38
2022-11-19T20:04:06.874Z,11.57
2022-11-19T20:06:34.021Z,10.68
2022-11-19T20:09:03.188Z,9.68
2022-11-19T20:11:33.514Z,8.93
2022-11-19T20:13:59.973Z,11.25
2022-11-19T20:16:27.573Z,16.02
2022-11-19T20:18:55.251Z,13.38
2022-11-19T20:21:28.265Z,16.10
2022-11-19T20:23:55.573Z,8.35
2022-11-19T20:26:23.667Z,13.63
2022-11-19T20:28:57.269Z,13.32
2022-11-19T20:31:24.165Z,10.50
2022-11-19T20:33:52.045Z,10.43
2022-11-19T20:36:18.829Z,16.80
2022-11-19T20:38:48.367Z,22.30
2022-11-19T20:41:34.255Z,22.75
2022-11-19T20:44:20.214Z,16.73
2022-11-19T20:46:57.612Z,13.35
2022-11-19T20:49:25.509Z,11.75
2022-11-19T20:51:52.870Z,13.05
2022-11-19T20:54:20.797Z,15.80
2022-11-19T20:56:48.830Z,14.88
2022-11-19T20:59:15.522Z,14.98
2022-11-19T21:01:42.418Z,15.93
2022-11-19T21:04:10.280Z,12.77
2022-11-19T21:06:36.778Z,14.50
2022-11-19T21:09:04.092Z,15.98
2022-11-19T21:11:30.590Z,16.40
2022-11-19T21:13:57.193Z,13.93
2022-11-19T21:16:24.610Z,12.73
2022-11-19T21:18:52.278Z,20.48
2022-11-19T21:21:19.877Z,8.98
2022-11-19T21:23:46.646Z,11.52
2022-11-19T21:26:16.421Z,17.77
2022-11-19T21:28:45.192Z,14.88
2022-11-19T21:31:11.688Z,25.08
2022-11-19T21:33:38.165Z,9.07
2022-11-19T21:36:05.131Z,17.38
2022-11-19T21:38:31.650Z,15.30
2022-11-19T21:40:58.128Z,14.02
2022-11-19T21:43:25.622Z,12.02
2022-11-19T21:45:54.339Z,9.25
2022-11-19T21:48:21.537Z,14.88
2022-11-19T21:50:48.482Z,14.80
2022-11-19T21:53:15.527Z,18.10
2022-11-19T21:55:43.407Z,13.55
2022-11-19T21:58:10.641Z,14.93
2022-11-19T22:00:40.298Z,19.52
2022-11-19T22:03:07.040Z,19.20
2022-11-19T22:05:33.495Z,13.25
2022-11-19T22:08:00.244Z,10.00
2022-11-19T22:10:27.070Z,16.85
2022-11-19T22:12:53.713Z,14.55
2022-11-19T22:15:20.325Z,15.05
2022-11-19T22:17:46.999Z,15.57
2022-11-19T22:20:13.913Z,19.88
2022-11-19T22:22:45.138Z,16.92
2022-11-19T22:25:12.369Z,10.90
2022-11-19T22:27:39.290Z,17.35
2022-11-19T22:30:06.489Z,17.98
2022-11-19T22:32:33.127Z,12.57
2022-11-19T22:34:59.616Z,13.30
2022-11-19T22:37:26.068Z,11.73
2022-11-19T22:39:52.621Z,11.93
2022-11-19T22:42:19.097Z,13.65
2022-11-19T22:44:45.709Z,11.88
2022-11-19T22:47:12.176Z,14.63
2022-11-19T22:49:38.651Z,9.00
2022-11-19T22:52:05.104Z,15.02
2022-11-19T22:54:31.530Z,16.35
2022-11-19T22:56:58.118Z,18.67
2022-11-19T22:59:24.609Z,13.15
2022-11-19T23:01:51.252Z,16.98
2022-11-19T23:04:17.853Z,18.27
2022-11-19T23:06:44.312Z,12.63
2022-11-19T23:09:10.911Z,13.23
2022-11-19T23:11:56.077Z,22.50
2022-11-19T23:14:22.732Z,16.70
2022-11-19T23:16:49.245Z,19.30
2022-11-19T23:19:19.222Z,14.57
2022-11-19T23:21:46.414Z,16.38
2022-11-19T23:24:13.248Z,10.45
2022-11-19T23:26:39.914Z,13.60
2022-11-19T23:29:06.936Z,11.85
2022-11-19T23:31:42.443Z,14.15
2022-11-19T23:34:09.015Z,10.38
2022-11-19T23:36:36.634Z,13.95
2022-11-19T23:39:05.162Z,16.50
2022-11-19T23:41:32.917Z,12.93
2022-11-19T23:43:59.357Z,12.23
2022-11-19T23:46:27.534Z,13.27
2022-11-19T23:48:54.934Z,20.60
2022-11-19T23:51:23.160Z,16.10
2022-11-19T23:53:49.700Z,20.98
2022-11-19T23:56:16.965Z,16.48
2022-11-19T23:58:43.754Z,19.70
